createdAt,value
2022-08-17T00:00:43.625Z,27.77
2022-08-17T00:04:05.033Z,26.13
2022-08-17T00:06:37.279Z,26.75
2022-08-17T00:09:06.077Z,28.35
2022-08-17T00:11:39.711Z,28.02
2022-08-17T00:14:33.412Z,25.98
2022-08-17T00:17:01.541Z,28.25
2022-08-17T00:19:29.402Z,26.52
2022-08-17T00:22:32.473Z,26.50
2022-08-17T00:24:48.932Z,26.85
2022-08-17T00:27:17.005Z,26.67
2022-08-17T00:29:46.120Z,27.55
2022-08-17T00:33:14.105Z,27.02
2022-08-17T00:35:08.562Z,26.95
2022-08-17T00:40:05.368Z,27.60
2022-08-17T00:42:33.666Z,27.05
2022-08-17T00:45:01.990Z,27.35
2022-08-17T00:47:29.848Z,26.10
2022-08-17T00:49:58.698Z,26.35
2022-08-17T00:52:35.222Z,28.25
2022-08-17T00:55:08.875Z,27.00
2022-08-17T00:57:44.242Z,24.50
2022-08-17T01:00:34.185Z,26.33
2022-08-17T01:03:27.591Z,27.85
2022-08-17T01:05:58.916Z,28.35
2022-08-17T01:08:29.886Z,29.00
2022-08-17T01:11:02.427Z,28.05
2022-08-17T01:13:42.977Z,28.27
2022-08-17T01:16:37.587Z,28.75
2022-08-17T01:19:11.742Z,27.70
2022-08-17T01:22:10.295Z,28.23
2022-08-17T01:24:48.699Z,27.30
2022-08-17T01:27:43.683Z,27.77
2022-08-17T01:30:58.639Z,29.02
2022-08-17T01:33:04.619Z,26.85
2022-08-17T01:35:57.514Z,28.17
2022-08-17T01:38:31.698Z,29.33
2022-08-17T01:41:08.257Z,27.38
2022-08-17T01:43:59.281Z,28.73
2022-08-17T01:46:33.690Z,27.55
2022-08-17T01:49:28.276Z,29.13
2022-08-17T01:52:24.199Z,29.83
2022-08-17T01:54:53.243Z,30.05
2022-08-17T01:57:22.442Z,30.75
2022-08-17T01:59:50.336Z,29.73
2022-08-17T02:02:30.283Z,30.50
2022-08-17T02:04:59.394Z,33.63
2022-08-17T02:07:27.490Z,29.35
2022-08-17T02:09:56.712Z,29.25
2022-08-17T02:12:39.328Z,29.80
2022-08-17T02:15:12.707Z,28.83
2022-08-17T02:18:06.386Z,29.42
2022-08-17T02:20:41.765Z,32.22
2022-08-17T02:23:41.482Z,29.77
2022-08-17T02:26:11.217Z,29.90
2022-08-17T02:28:53.910Z,30.75
2022-08-17T02:31:22.602Z,29.23
2022-08-17T02:34:15.452Z,31.13
2022-08-17T02:36:44.737Z,29.30
2022-08-17T02:39:16.845Z,30.17
2022-08-17T02:41:45.436Z,28.48
2022-08-17T02:44:13.196Z,31.98
2022-08-17T02:47:01.538Z,29.33
2022-08-17T02:49:29.345Z,28.38
2022-08-17T02:51:58.733Z,27.38
2022-08-17T02:54:40.374Z,26.98
2022-08-17T02:57:14.056Z,26.92
2022-08-17T02:59:46.710Z,27.70
2022-08-17T03:02:16.420Z,31.10
2022-08-17T03:04:44.206Z,31.15
2022-08-17T03:07:13.434Z,27.08
2022-08-17T03:09:41.109Z,29.50
2022-08-17T03:12:13.115Z,27.67
2022-08-17T03:14:43.001Z,28.52
2022-08-17T03:17:16.932Z,26.50
2022-08-17T03:19:45.732Z,28.00
2022-08-17T03:22:37.415Z,27.10
2022-08-17T03:25:02.155Z,26.00
2022-08-17T03:27:30.900Z,27.13
2022-08-17T03:29:59.733Z,25.85
2022-08-17T03:32:27.618Z,26.40
2022-08-17T03:35:01.769Z,26.35
2022-08-17T03:37:29.671Z,25.45
2022-08-17T03:39:57.605Z,26.20
2022-08-17T03:42:32.015Z,25.85
2022-08-17T03:45:03.836Z,24.60
2022-08-17T03:50:19.318Z,25.67
2022-08-17T03:53:08.513Z,27.25
2022-08-17T03:55:55.777Z,24.55
2022-08-17T03:58:24.042Z,28.67
2022-08-17T04:00:52.274Z,25.95
2022-08-17T04:03:20.135Z,32.17
2022-08-17T04:05:47.838Z,25.23
2022-08-17T04:08:15.663Z,26.90
2022-08-17T04:10:45.123Z,24.05
2022-08-17T04:13:14.024Z,24.55
2022-08-17T04:15:42.157Z,27.00
2022-08-17T04:18:10.923Z,24.63
2022-08-17T04:20:38.993Z,24.80
2022-08-17T04:23:11.670Z,28.02
2022-08-17T04:25:46.806Z,32.42
2022-08-17T04:28:16.290Z,34.47
2022-08-17T04:30:45.384Z,29.73
2022-08-17T04:33:25.588Z,31.13
2022-08-17T04:36:05.604Z,24.37
2022-08-17T04:38:38.691Z,27.88
2022-08-17T04:41:26.551Z,23.88
2022-08-17T04:43:58.521Z,23.60
2022-08-17T04:46:29.785Z,26.13
2022-08-17T04:48:58.167Z,36.33
2022-08-17T04:51:34.984Z,21.98
2022-08-17T04:54:13.284Z,25.52
2022-08-17T04:56:41.253Z,20.40
2022-08-17T04:59:34.209Z,22.25
2022-08-17T05:02:01.980Z,21.08
2022-08-17T05:04:34.432Z,20.88
2022-08-17T05:07:04.792Z,19.45
2022-08-17T05:09:32.618Z,19.80
2022-08-17T05:12:02.379Z,24.67
2022-08-17T05:14:32.989Z,24.05
2022-08-17T05:17:07.177Z,21.20
2022-08-17T05:19:39.501Z,21.63
2022-08-17T05:22:07.466Z,20.83
2022-08-17T05:24:42.728Z,20.75
2022-08-17T05:27:23.507Z,19.92
2022-08-17T05:29:51.391Z,21.13
2022-08-17T05:32:39.111Z,20.48
2022-08-17T05:35:08.545Z,19.65
2022-08-17T05:37:36.327Z,21.05
2022-08-17T05:40:05.216Z,20.63
2022-08-17T05:42:37.635Z,20.33
2022-08-17T05:45:08.465Z,20.25
2022-08-17T05:47:40.136Z,19.38
2022-08-17T05:50:09.965Z,18.52
2022-08-17T05:52:51.017Z,21.07
2022-08-17T05:55:33.467Z,19.00
2022-08-17T05:58:11.120Z,19.77
2022-08-17T06:00:53.778Z,19.95
2022-08-17T06:03:46.310Z,17.50
2022-08-17T06:06:48.802Z,20.65
2022-08-17T06:09:38.808Z,20.92
2022-08-17T06:12:33.021Z,18.70
2022-08-17T06:15:26.539Z,17.75
2022-08-17T06:18:23.195Z,17.38
2022-08-17T06:20:56.817Z,17.35
2022-08-17T06:23:58.319Z,17.88
2022-08-17T06:30:27.466Z,16.30
2022-08-17T06:33:06.275Z,20.42
2022-08-17T06:35:41.297Z,16.92
2022-08-17T06:38:38.555Z,16.13
2022-08-17T06:41:46.233Z,15.63
2022-08-17T06:44:43.265Z,16.25
2022-08-17T06:47:38.820Z,15.40
2022-08-17T06:50:31.729Z,15.82
2022-08-17T06:53:26.967Z,17.42
2022-08-17T06:56:09.073Z,16.73
2022-08-17T06:58:40.669Z,16.02
2022-08-17T07:01:16.519Z,15.82
2022-08-17T07:04:19.473Z,15.10
2022-08-17T07:07:31.350Z,16.73
2022-08-17T07:10:01.734Z,15.63
2022-08-17T07:12:37.661Z,17.95
2022-08-17T07:15:15.024Z,15.15
2022-08-17T07:17:47.474Z,15.40
2022-08-17T07:20:43.126Z,15.38
2022-08-17T07:23:40.397Z,15.90
2022-08-17T07:26:13.507Z,14.43
2022-08-17T07:28:43.998Z,12.73
2022-08-17T07:31:14.583Z,14.02
2022-08-17T07:34:07.039Z,13.63
2022-08-17T07:36:35.242Z,15.93
2022-08-17T07:39:04.374Z,14.50
2022-08-17T07:41:57.349Z,12.95
2022-08-17T07:44:27.937Z,13.80
2022-08-17T07:47:15.636Z,13.65
2022-08-17T07:50:28.175Z,11.73
2022-08-17T07:53:17.132Z,13.63
2022-08-17T07:55:45.655Z,12.35
2022-08-17T07:58:23.774Z,13.57
2022-08-17T08:01:10.312Z,12.02
2022-08-17T08:03:43.113Z,12.45
2022-08-17T08:06:25.265Z,11.38
2022-08-17T08:08:56.395Z,13.57
2022-08-17T08:11:36.099Z,12.40
2022-08-17T08:14:29.745Z,12.50
2022-08-17T08:17:06.753Z,13.32
2022-08-17T08:19:37.498Z,12.00
2022-08-17T08:22:16.121Z,12.13
2022-08-17T08:25:23.749Z,11.57
2022-08-17T08:28:20.251Z,12.32
2022-08-17T08:31:14.165Z,12.80
2022-08-17T08:33:56.492Z,10.52
2022-08-17T08:36:57.092Z,11.63
2022-08-17T08:40:11.259Z,10.05
2022-08-17T08:43:22.992Z,10.90
2022-08-17T08:45:52.482Z,10.60
2022-08-17T08:51:31.530Z,10.77
2022-08-17T08:54:15.521Z,9.85
2022-08-17T08:57:22.870Z,10.70
2022-08-17T09:00:15.695Z,10.68
2022-08-17T09:03:05.542Z,10.55
2022-08-17T09:06:04.063Z,12.75
2022-08-17T09:08:54.066Z,10.55
2022-08-17T09:11:31.448Z,10.17
2022-08-17T09:14:07.868Z,11.13
2022-08-17T09:17:19.495Z,11.25
2022-08-17T09:20:27.873Z,10.60
2022-08-17T09:23:24.249Z,10.75
2022-08-17T09:26:00.985Z,11.15
2022-08-17T09:28:37.110Z,11.15
2022-08-17T09:31:48.721Z,10.63
2022-08-17T09:34:26.965Z,10.77
2022-08-17T09:37:30.391Z,12.30
2022-08-17T09:40:09.927Z,11.48
2022-08-17T09:42:48.981Z,13.13
2022-08-17T09:45:37.235Z,11.35
2022-08-17T09:48:51.793Z,10.20
2022-08-17T09:51:23.132Z,11.07
2022-08-17T09:53:52.457Z,10.30
2022-08-17T09:57:28.129Z,10.77
2022-08-17T10:03:04.249Z,10.40
2022-08-17T10:05:46.769Z,10.75
2022-08-17T10:08:40.318Z,10.68
2022-08-17T10:11:46.094Z,10.77
2022-08-17T10:14:36.758Z,13.20
2022-08-17T10:17:25.110Z,10.97
2022-08-17T10:20:34.409Z,11.30
2022-08-17T10:23:24.578Z,10.52
2022-08-17T10:26:16.101Z,10.68
2022-08-17T10:28:44.548Z,10.60
2022-08-17T10:31:34.930Z,11.30
2022-08-17T10:34:29.051Z,10.55
2022-08-17T10:37:22.355Z,10.90
2022-08-17T10:40:14.980Z,10.95
2022-08-17T10:42:56.722Z,10.88
2022-08-17T10:45:37.001Z,9.48
2022-08-17T10:48:07.947Z,9.75
2022-08-17T10:51:02.516Z,9.90
2022-08-17T10:53:33.596Z,9.52
2022-08-17T10:56:14.736Z,10.50
2022-08-17T10:58:56.343Z,13.30
2022-08-17T11:01:36.535Z,12.27
2022-08-17T11:04:44.758Z,11.57
2022-08-17T11:07:25.891Z,10.32
2022-08-17T11:09:53.820Z,11.02
2022-08-17T11:12:38.946Z,11.02
2022-08-17T11:15:32.428Z,10.25
2022-08-17T11:18:02.139Z,10.25
2022-08-17T11:20:45.802Z,9.70
2022-08-17T11:23:26.230Z,10.35
2022-08-17T11:25:56.828Z,10.40
2022-08-17T11:28:36.185Z,10.27
2022-08-17T11:31:38.713Z,11.18
2022-08-17T11:34:21.757Z,13.25
2022-08-17T11:37:11.467Z,13.52
2022-08-17T11:40:25.688Z,10.77
2022-08-17T11:43:33.704Z,10.00
2022-08-17T11:46:22.866Z,10.23
2022-08-17T11:49:20.063Z,10.73
2022-08-17T11:52:01.143Z,10.02
2022-08-17T11:54:36.085Z,10.75
2022-08-17T11:57:25.555Z,10.30
2022-08-17T12:00:28.248Z,11.35
2022-08-17T12:03:27.006Z,11.55
2022-08-17T12:06:30.300Z,10.57
2022-08-17T12:09:24.803Z,12.52
2022-08-17T12:12:13.224Z,10.85
2022-08-17T12:15:09.508Z,11.43
2022-08-17T12:17:40.970Z,11.95
2022-08-17T12:20:15.696Z,10.50
2022-08-17T12:23:01.425Z,10.52
2022-08-17T12:25:53.195Z,10.57
2022-08-17T12:28:38.694Z,11.27
2022-08-17T12:31:25.074Z,11.02
2022-08-17T12:34:02.078Z,11.50
2022-08-17T12:36:32.678Z,11.13
2022-08-17T12:39:13.756Z,10.82
2022-08-17T12:41:47.380Z,10.85
2022-08-17T12:44:46.265Z,10.55
2022-08-17T12:47:22.633Z,11.50
2022-08-17T12:49:53.861Z,10.93
2022-08-17T12:52:26.263Z,10.48
2022-08-17T12:55:00.722Z,11.20
2022-08-17T12:58:04.118Z,11.48
2022-08-17T13:00:47.571Z,12.10
2022-08-17T13:03:19.424Z,10.57
2022-08-17T13:05:52.883Z,11.00
2022-08-17T13:08:29.112Z,11.85
2022-08-17T13:11:00.271Z,10.85
2022-08-17T13:13:31.454Z,11.60
2022-08-17T13:16:09.717Z,10.85
2022-08-17T13:18:40.853Z,11.07
2022-08-17T13:21:19.865Z,11.65
2022-08-17T13:24:30.664Z,11.10
2022-08-17T13:27:13.544Z,11.10
2022-08-17T13:29:51.381Z,11.40
2022-08-17T13:32:33.596Z,11.83
2022-08-17T13:35:39.536Z,10.75
2022-08-17T13:38:13.145Z,11.40
2022-08-17T13:40:53.556Z,11.02
2022-08-17T13:43:45.110Z,13.20
2022-08-17T13:46:20.437Z,12.55
2022-08-17T13:49:00.746Z,10.85
2022-08-17T13:51:42.094Z,11.43
2022-08-17T13:54:34.462Z,11.23
2022-08-17T13:57:22.667Z,9.75
2022-08-17T13:59:57.451Z,10.68
2022-08-17T14:02:28.399Z,11.40
2022-08-17T14:04:58.377Z,11.73
2022-08-17T14:07:34.027Z,13.20
2022-08-17T14:10:17.561Z,12.20
2022-08-17T14:12:45.947Z,11.20
2022-08-17T14:15:18.362Z,12.60
2022-08-17T14:17:49.241Z,10.43
2022-08-17T14:20:20.929Z,12.05
2022-08-17T14:22:54.463Z,11.38
2022-08-17T14:25:27.624Z,11.38
2022-08-17T14:27:56.287Z,10.30
2022-08-17T14:30:29.916Z,11.18
2022-08-17T14:32:59.667Z,12.02
2022-08-17T14:35:29.464Z,11.23
2022-08-17T14:37:57.697Z,10.45
2022-08-17T14:40:26.014Z,12.20
2022-08-17T14:42:56.665Z,11.90
2022-08-17T14:45:32.347Z,12.20
2022-08-17T14:48:08.327Z,12.07
2022-08-17T14:50:59.800Z,13.90
2022-08-17T14:53:27.618Z,12.27
2022-08-17T14:55:55.336Z,11.40
2022-08-17T14:58:23.895Z,12.23
2022-08-17T15:00:51.751Z,11.98
2022-08-17T15:03:19.607Z,11.02
2022-08-17T15:05:47.480Z,11.60
2022-08-17T15:08:16.830Z,11.57
2022-08-17T15:10:45.194Z,12.00
2022-08-17T15:13:22.919Z,12.63
2022-08-17T15:15:51.425Z,11.45
2022-08-17T15:18:19.185Z,12.32
2022-08-17T15:20:49.590Z,14.35
2022-08-17T15:23:20.900Z,11.95
2022-08-17T15:25:52.757Z,11.73
2022-08-17T15:28:25.285Z,13.35
2022-08-17T15:31:00.103Z,12.57
2022-08-17T15:33:31.778Z,12.73
2022-08-17T15:36:04.809Z,14.38
2022-08-17T15:38:36.988Z,12.55
2022-08-17T15:41:05.185Z,13.23
2022-08-17T15:43:33.946Z,12.25
2022-08-17T15:46:10.557Z,12.18
2022-08-17T15:48:43.898Z,11.88
2022-08-17T15:51:24.214Z,13.05
2022-08-17T15:53:56.110Z,13.48
2022-08-17T15:56:25.405Z,13.35
2022-08-17T15:58:55.313Z,12.65
2022-08-17T16:02:07.743Z,12.93
2022-08-17T16:04:26.691Z,13.70
2022-08-17T16:07:00.082Z,13.52
2022-08-17T16:09:28.438Z,13.98
2022-08-17T16:12:13.791Z,12.52
2022-08-17T16:14:41.834Z,14.55
2022-08-17T16:17:40.042Z,14.10
2022-08-17T16:19:58.547Z,14.85
2022-08-17T16:22:33.225Z,13.85
2022-08-17T16:25:09.074Z,14.45
2022-08-17T16:27:37.221Z,14.63
2022-08-17T16:30:17.360Z,14.23
2022-08-17T16:35:18.712Z,16.05
2022-08-17T16:37:47.128Z,15.32
2022-08-17T16:40:16.674Z,15.60
2022-08-17T16:42:48.542Z,16.15
2022-08-17T16:45:24.226Z,15.50
2022-08-17T16:47:52.631Z,14.88
2022-08-17T16:50:22.718Z,14.23
2022-08-17T16:53:04.323Z,14.85
2022-08-17T16:55:32.480Z,15.95
2022-08-17T16:58:02.237Z,16.58
2022-08-17T17:00:30.639Z,14.02
2022-08-17T17:03:19.193Z,14.43
2022-08-17T17:06:14.452Z,17.40
2022-08-17T17:09:05.462Z,14.57
2022-08-17T17:11:48.288Z,14.88
2022-08-17T17:14:22.968Z,16.15
2022-08-17T17:17:16.329Z,16.60
2022-08-17T17:19:51.449Z,16.48
2022-08-17T17:22:33.229Z,15.80
2022-08-17T17:25:09.988Z,16.23
2022-08-17T17:28:19.211Z,16.10
2022-08-17T17:31:24.014Z,16.65
2022-08-17T17:34:03.071Z,17.38
2022-08-17T17:36:41.698Z,17.38
2022-08-17T17:39:18.218Z,17.08
2022-08-17T17:41:54.025Z,16.98
2022-08-17T17:44:33.401Z,17.50
2022-08-17T17:47:03.019Z,16.60
2022-08-17T17:49:35.839Z,16.13
2022-08-17T17:52:25.206Z,16.75
2022-08-17T17:55:01.144Z,17.17
2022-08-17T17:57:47.476Z,19.08
2022-08-17T18:00:22.433Z,18.48
2022-08-17T18:02:51.372Z,18.27
2022-08-17T18:05:25.879Z,17.90
2022-08-17T18:08:20.293Z,16.73
2022-08-17T18:11:09.325Z,17.85
2022-08-17T18:14:05.436Z,18.55
2022-08-17T18:16:35.656Z,17.63
2022-08-17T18:19:03.875Z,17.02
2022-08-17T18:21:39.214Z,23.75
2022-08-17T18:24:08.807Z,19.02
2022-08-17T18:26:39.801Z,19.85
2022-08-17T18:29:30.247Z,19.45
2022-08-17T18:32:23.057Z,18.23
2022-08-17T18:34:56.886Z,18.77
2022-08-17T18:37:31.187Z,20.08
2022-08-17T18:40:17.524Z,23.15
2022-08-17T18:42:59.021Z,20.08
2022-08-17T18:45:50.721Z,20.13
2022-08-17T18:48:38.209Z,29.73
2022-08-17T18:51:40.779Z,20.40
2022-08-17T18:54:28.472Z,21.15
2022-08-17T18:57:00.723Z,20.23
2022-08-17T18:59:42.579Z,20.48
2022-08-17T19:02:23.250Z,21.23
2022-08-17T19:05:08.058Z,21.65
2022-08-17T19:07:45.443Z,21.67
2022-08-17T19:10:18.439Z,21.00
2022-08-17T19:13:00.669Z,22.33
2022-08-17T19:15:40.948Z,22.60
2022-08-17T19:18:21.519Z,21.83
2022-08-17T19:21:08.520Z,21.35
2022-08-17T19:24:05.979Z,21.67
2022-08-17T19:26:53.885Z,22.70
2022-08-17T19:29:57.940Z,21.92
2022-08-17T19:32:34.423Z,22.30
2022-08-17T19:35:04.718Z,25.02
2022-08-17T19:38:04.511Z,23.58
2022-08-17T19:40:53.514Z,23.33
2022-08-17T19:43:48.087Z,23.45
2022-08-17T19:46:49.999Z,23.45
2022-08-17T19:49:41.190Z,24.20
2022-08-17T19:55:07.710Z,23.10
2022-08-17T19:58:21.257Z,23.17
2022-08-17T20:00:56.159Z,22.90
2022-08-17T20:03:47.596Z,23.77
2022-08-17T20:06:26.822Z,23.80
2022-08-17T20:09:14.767Z,23.90
2022-08-17T20:11:48.697Z,25.50
2022-08-17T20:14:22.392Z,23.05
2022-08-17T20:16:53.669Z,22.90
2022-08-17T20:19:28.709Z,25.58
2022-08-17T20:22:01.759Z,23.40
2022-08-17T20:24:47.637Z,23.55
2022-08-17T20:27:20.762Z,23.80
2022-08-17T20:30:11.307Z,25.08
2022-08-17T20:33:32.044Z,24.58
2022-08-17T20:36:02.464Z,25.67
2022-08-17T20:38:59.659Z,26.55
2022-08-17T20:41:30.169Z,28.25
2022-08-17T20:46:36.820Z,28.23
2022-08-17T20:49:47.955Z,25.67
2022-08-17T20:52:42.513Z,27.30
2022-08-17T20:55:36.047Z,25.60
2022-08-17T20:58:23.485Z,26.63
2022-08-17T21:00:57.158Z,26.70
2022-08-17T21:03:40.018Z,27.52
2022-08-17T21:06:21.323Z,27.20
2022-08-17T21:09:00.492Z,28.02
2022-08-17T21:12:02.890Z,24.48
2022-08-17T21:14:39.420Z,23.75
2022-08-17T21:17:22.802Z,22.88
2022-08-17T21:20:17.639Z,24.20
2022-08-17T21:22:57.955Z,23.02
2022-08-17T21:25:37.402Z,21.45
2022-08-17T21:28:10.799Z,22.15
2022-08-17T21:31:09.960Z,23.15
2022-08-17T21:33:39.715Z,24.27
2022-08-17T21:36:13.331Z,23.00
2022-08-17T21:38:53.417Z,21.80
2022-08-17T21:41:30.170Z,24.80
2022-08-17T21:44:22.674Z,22.00
2022-08-17T21:46:52.889Z,22.58
2022-08-17T21:49:26.647Z,24.77
2022-08-17T21:51:56.428Z,29.60
2022-08-17T21:54:40.649Z,23.48
2022-08-17T21:57:20.502Z,22.98
2022-08-17T21:59:57.790Z,22.60
2022-08-17T22:02:34.054Z,22.85
2022-08-17T22:05:09.316Z,23.17
2022-08-17T22:07:58.966Z,23.50
2022-08-17T22:10:45.006Z,24.25
2022-08-17T22:13:18.415Z,23.67
2022-08-17T22:16:27.722Z,22.80
2022-08-17T22:19:01.179Z,24.63
2022-08-17T22:22:02.617Z,24.17
2022-08-17T22:24:33.654Z,25.17
2022-08-17T22:27:11.845Z,23.58
2022-08-17T22:29:58.280Z,24.77
2022-08-17T22:32:46.801Z,23.58
2022-08-17T22:35:30.570Z,25.95
2022-08-17T22:38:18.691Z,25.38
2022-08-17T22:41:18.625Z,25.55
2022-08-17T22:43:47.105Z,24.27
2022-08-17T22:46:15.636Z,25.40
2022-08-17T22:48:53.834Z,24.42
2022-08-17T22:51:24.117Z,24.30
2022-08-17T22:54:17.182Z,24.13
2022-08-17T22:57:15.171Z,25.70
2022-08-17T22:59:56.047Z,25.63
2022-08-17T23:02:23.979Z,25.33
2022-08-17T23:05:17.036Z,27.65
2022-08-17T23:07:54.721Z,26.42
2022-08-17T23:10:22.612Z,27.45
2022-08-17T23:13:15.495Z,26.73
2022-08-17T23:15:43.883Z,28.00
2022-08-17T23:18:11.899Z,27.90
2022-08-17T23:20:41.939Z,27.70
2022-08-17T23:23:14.202Z,27.38
2022-08-17T23:25:46.264Z,25.85
2022-08-17T23:28:14.305Z,27.80
2022-08-17T23:30:44.421Z,27.10
2022-08-17T23:33:35.641Z,26.13
2022-08-17T23:36:06.464Z,25.58
2022-08-17T23:38:34.634Z,27.25
2022-08-17T23:41:28.669Z,27.27
2022-08-17T23:44:01.379Z,27.80
2022-08-17T23:46:29.439Z,27.75
2022-08-17T23:48:59.759Z,27.83
2022-08-17T23:51:31.763Z,30.35
2022-08-17T23:54:08.173Z,27.65
2022-08-17T23:56:44.818Z,25.73
2022-08-17T23:59:14.742Z,26.55
